Time;durP1;ratioP1;P1;durP2;ratioP2;P2;SDS_P1;SDS_P2;PMS_P1;PMS_P2;Temp;Humidity;BMP_temperature;BMP_pressure;BME280_temperature;BME280_humidity;BME280_pressure;Samples;Min_cycle;Max_cycle;Signal;HPM_P1;HPM_P2
2023/03/18 00:01:58;;;;;;;0.60;0.60;;;;;;;;;;4995001;28;20644;-87
2023/03/18 00:04:25;;;;;;;0.67;0.67;;;;;;;;;;4994639;28;20198;-87
2023/03/18 00:06:50;;;;;;;0.60;0.60;;;;;;;;;;4995327;28;20177;-87
2023/03/18 00:09:17;;;;;;;0.60;0.60;;;;;;;;;;4995202;28;20200;-87
2023/03/18 00:11:44;;;;;;;0.60;0.60;;;;;;;;;;4995213;28;20185;-87
2023/03/18 00:14:10;;;;;;;0.60;0.60;;;;;;;;;;4995315;28;20675;-87
2023/03/18 00:16:36;;;;;;;0.70;0.70;;;;;;;;;;4994864;28;20244;-87
2023/03/18 00:19:03;;;;;;;0.70;0.70;;;;;;;;;;4993524;28;20189;-87
2023/03/18 00:21:29;;;;;;;0.60;0.60;;;;;;;;;;4994235;28;20196;-87
2023/03/18 00:23:57;;;;;;;0.70;0.70;;;;;;;;;;4994665;28;20234;-86
2023/03/18 00:26:24;;;;;;;0.70;0.70;;;;;;;;;;4994973;28;20173;-87
2023/03/18 00:28:50;;;;;;;0.70;0.70;;;;;;;;;;4994510;28;20184;-87
2023/03/18 00:31:16;;;;;;;0.80;0.80;;;;;;;;;;4994880;28;20807;-87
2023/03/18 00:33:44;;;;;;;0.50;0.50;;;;;;;;;;4994472;28;20205;-87
2023/03/18 00:36:12;;;;;;;0.60;0.60;;;;;;;;;;4993661;28;20220;-86
2023/03/18 00:38:38;;;;;;;0.70;0.70;;;;;;;;;;4995044;28;20169;-86
2023/03/18 00:41:10;;;;;;;0.70;0.70;;;;;;;;;;4995963;28;20181;-87
2023/03/18 00:43:51;;;;;;;0.67;0.67;;;;;;;;;;4995497;28;20255;-86
2023/03/18 00:46:18;;;;;;;0.60;0.60;;;;;;;;;;4995169;28;20188;-87
2023/03/18 00:48:44;;;;;;;0.70;0.70;;;;;;;;;;4994359;28;20225;-88
2023/03/18 00:51:15;;;;;;;0.80;0.80;;;;;;;;;;4994292;28;20664;-87
2023/03/18 00:53:43;;;;;;;0.70;0.70;;;;;;;;;;4994094;28;20696;-87
2023/03/18 00:56:10;;;;;;;0.53;0.53;;;;;;;;;;4994623;28;20293;-87
2023/03/18 00:58:36;;;;;;;0.70;0.70;;;;;;;;;;4994343;28;20180;-87
2023/03/18 01:01:03;;;;;;;0.80;0.80;;;;;;;;;;4995436;28;20213;-87
2023/03/18 01:03:30;;;;;;;0.80;0.80;;;;;;;;;;4995479;28;20244;-88
2023/03/18 01:05:56;;;;;;;0.70;0.70;;;;;;;;;;4996904;28;20308;-87
2023/03/18 01:08:23;;;;;;;0.53;0.53;;;;;;;;;;4997541;28;20217;-85
2023/03/18 01:10:49;;;;;;;0.63;0.63;;;;;;;;;;4995094;28;20653;-86
2023/03/18 01:13:16;;;;;;;0.70;0.70;;;;;;;;;;5005606;28;21144;-89
2023/03/18 01:15:41;;;;;;;0.70;0.70;;;;;;;;;;5016833;28;20213;-91
2023/03/18 01:18:10;;;;;;;0.70;0.70;;;;;;;;;;5017362;28;20188;-90
2023/03/18 01:20:36;;;;;;;0.60;0.60;;;;;;;;;;5017477;28;20178;-91
2023/03/18 01:23:03;;;;;;;0.60;0.60;;;;;;;;;;5012944;28;20206;-87
2023/03/18 01:25:29;;;;;;;0.70;0.70;;;;;;;;;;4998304;28;20181;-87
2023/03/18 01:27:55;;;;;;;0.60;0.60;;;;;;;;;;4995206;28;20184;-85
2023/03/18 01:30:22;;;;;;;0.70;0.70;;;;;;;;;;4995536;28;20204;-87
2023/03/18 01:32:48;;;;;;;0.60;0.60;;;;;;;;;;4996665;28;20210;-86
2023/03/18 01:35:14;;;;;;;0.60;0.60;;;;;;;;;;4998077;28;20190;-87
2023/03/18 01:37:42;;;;;;;0.60;0.60;;;;;;;;;;4997715;28;20192;-86
2023/03/18 01:40:10;;;;;;;0.70;0.70;;;;;;;;;;4998219;28;20173;-86
2023/03/18 01:42:37;;;;;;;0.57;0.57;;;;;;;;;;4997924;28;20201;-87
2023/03/18 01:45:30;;;;;;;0.63;0.63;;;;;;;;;;4998075;28;20188;-86
2023/03/18 01:47:57;;;;;;;0.60;0.60;;;;;;;;;;4996672;28;20189;-86
2023/03/18 01:50:26;;;;;;;0.60;0.60;;;;;;;;;;4997983;28;20220;-87
2023/03/18 01:52:54;;;;;;;0.60;0.60;;;;;;;;;;4997261;28;20251;-87
2023/03/18 01:55:21;;;;;;;0.60;0.60;;;;;;;;;;4997645;28;20236;-86
2023/03/18 01:57:48;;;;;;;0.60;0.60;;;;;;;;;;4997699;28;20232;-86
2023/03/18 02:00:15;;;;;;;0.70;0.70;;;;;;;;;;4997454;28;20203;-86
2023/03/18 02:02:43;;;;;;;0.60;0.60;;;;;;;;;;4996901;28;20283;-86
2023/03/18 02:05:10;;;;;;;0.70;0.70;;;;;;;;;;4997322;28;20268;-87
2023/03/18 02:07:36;;;;;;;0.63;0.63;;;;;;;;;;4998146;28;20183;-86
2023/03/18 02:10:10;;;;;;;0.70;0.70;;;;;;;;;;4997122;28;20228;-87
2023/03/18 02:12:37;;;;;;;0.70;0.70;;;;;;;;;;4996983;28;20220;-86
2023/03/18 02:15:05;;;;;;;0.60;0.60;;;;;;;;;;4997303;28;20235;-86
2023/03/18 02:17:34;;;;;;;0.60;0.60;;;;;;;;;;4998242;28;20220;-86
2023/03/18 02:20:36;;;;;;;0.63;0.63;;;;;;;;;;4998548;28;20233;-86
2023/03/18 02:23:22;;;;;;;0.60;0.60;;;;;;;;;;4977730;28;20202;-90
2023/03/18 02:25:54;;;;;;;0.60;0.60;;;;;;;;;;5017360;28;20265;-86
2023/03/18 02:28:26;;;;;;;0.70;0.70;;;;;;;;;;5010415;28;20213;-86
2023/03/18 02:30:54;;;;;;;0.60;0.60;;;;;;;;;;5000653;28;20192;-86
2023/03/18 02:33:21;;;;;;;0.70;0.70;;;;;;;;;;4999474;28;20667;-86
2023/03/18 02:35:51;;;;;;;0.60;0.60;;;;;;;;;;4999473;28;20628;-86
2023/03/18 02:38:17;;;;;;;0.60;0.60;;;;;;;;;;5000208;28;20184;-87
2023/03/18 02:40:43;;;;;;;0.63;0.63;;;;;;;;;;5000110;28;20204;-86
2023/03/18 02:43:15;;;;;;;0.60;0.60;;;;;;;;;;4999626;28;20208;-86
2023/03/18 02:45:47;;;;;;;0.60;0.60;;;;;;;;;;4999738;28;20177;-85
2023/03/18 02:48:15;;;;;;;0.60;0.60;;;;;;;;;;4998814;28;20272;-86
2023/03/18 02:50:41;;;;;;;0.53;0.53;;;;;;;;;;4999878;28;20174;-86
2023/03/18 02:53:08;;;;;;;0.60;0.60;;;;;;;;;;4999511;28;20193;-86
2023/03/18 02:55:34;;;;;;;0.50;0.50;;;;;;;;;;4999000;28;20633;-87
2023/03/18 02:58:00;;;;;;;0.60;0.60;;;;;;;;;;4998403;28;20197;-86
2023/03/18 03:00:26;;;;;;;0.60;0.60;;;;;;;;;;4998717;28;20165;-87
2023/03/18 03:02:52;;;;;;;0.60;0.60;;;;;;;;;;4998068;28;20256;-87
2023/03/18 03:05:19;;;;;;;0.60;0.60;;;;;;;;;;4998536;28;20248;-87
2023/03/18 03:07:45;;;;;;;0.60;0.60;;;;;;;;;;4997603;28;20177;-86
2023/03/18 03:10:12;;;;;;;0.67;0.67;;;;;;;;;;5000209;28;20203;-87
2023/03/18 03:12:38;;;;;;;0.73;0.73;;;;;;;;;;5000211;28;20205;-86
2023/03/18 03:15:05;;;;;;;0.60;0.60;;;;;;;;;;4999775;28;20197;-86
2023/03/18 03:17:32;;;;;;;0.60;0.60;;;;;;;;;;4999262;28;20217;-85
2023/03/18 03:19:58;;;;;;;0.70;0.70;;;;;;;;;;4999033;28;20177;-86
2023/03/18 03:22:24;;;;;;;0.50;0.50;;;;;;;;;;4999135;28;20264;-87
2023/03/18 03:24:51;;;;;;;0.70;0.70;;;;;;;;;;5000115;28;20212;-86
2023/03/18 03:27:17;;;;;;;0.60;0.60;;;;;;;;;;4999938;28;20189;-86
2023/03/18 03:29:43;;;;;;;0.60;0.60;;;;;;;;;;4998361;28;20247;-86
2023/03/18 03:32:09;;;;;;;0.60;0.60;;;;;;;;;;4997990;28;20520;-88
2023/03/18 03:34:36;;;;;;;0.70;0.70;;;;;;;;;;4996719;28;20193;-86
2023/03/18 03:37:02;;;;;;;0.50;0.50;;;;;;;;;;4995526;28;20217;-85
2023/03/18 03:39:28;;;;;;;0.67;0.67;;;;;;;;;;4996737;28;20598;-85
2023/03/18 03:41:54;;;;;;;0.50;0.50;;;;;;;;;;4997327;28;20188;-86
2023/03/18 03:44:20;;;;;;;0.60;0.60;;;;;;;;;;4996281;28;20256;-86
2023/03/18 03:46:47;;;;;;;0.60;0.60;;;;;;;;;;4997092;28;20185;-87
2023/03/18 03:49:13;;;;;;;0.57;0.57;;;;;;;;;;4996760;28;20177;-85
2023/03/18 03:51:39;;;;;;;0.70;0.70;;;;;;;;;;4997326;28;20185;-85
2023/03/18 03:54:05;;;;;;;0.60;0.60;;;;;;;;;;4996881;28;20740;-85
2023/03/18 03:56:31;;;;;;;0.60;0.60;;;;;;;;;;4996937;28;20228;-86
2023/03/18 03:58:57;;;;;;;0.67;0.67;;;;;;;;;;4996726;28;20184;-86
2023/03/18 04:01:23;;;;;;;0.70;0.70;;;;;;;;;;4996853;28;20178;-86
2023/03/18 04:03:49;;;;;;;0.67;0.67;;;;;;;;;;4996026;28;20573;-87
2023/03/18 04:06:15;;;;;;;0.50;0.50;;;;;;;;;;4997093;28;20207;-86
2023/03/18 04:08:41;;;;;;;0.60;0.60;;;;;;;;;;4996677;28;20599;-87
2023/03/18 04:11:07;;;;;;;0.60;0.60;;;;;;;;;;4997262;28;20264;-85
2023/03/18 04:13:33;;;;;;;0.60;0.60;;;;;;;;;;4996311;28;20258;-85
2023/03/18 04:15:59;;;;;;;0.67;0.67;;;;;;;;;;4996655;28;20236;-85
2023/03/18 04:18:26;;;;;;;0.70;0.70;;;;;;;;;;4996078;28;20365;-85
2023/03/18 04:20:52;;;;;;;0.60;0.60;;;;;;;;;;5044221;22;20208;-80
2023/03/18 04:23:18;;;;;;;0.60;0.60;;;;;;;;;;5007668;28;20204;-82
2023/03/18 04:25:44;;;;;;;0.60;0.60;;;;;;;;;;4996929;28;20192;-82
2023/03/18 04:28:10;;;;;;;0.60;0.60;;;;;;;;;;4996897;28;20286;-81
2023/03/18 04:30:36;;;;;;;0.60;0.60;;;;;;;;;;4994556;28;20177;-81
2023/03/18 04:33:02;;;;;;;0.60;0.60;;;;;;;;;;4994483;28;20205;-81
2023/03/18 04:35:28;;;;;;;0.60;0.60;;;;;;;;;;4995481;28;20264;-79
2023/03/18 04:37:54;;;;;;;0.70;0.70;;;;;;;;;;4995323;28;20216;-80
2023/03/18 04:40:20;;;;;;;0.60;0.60;;;;;;;;;;4995471;28;20196;-80
2023/03/18 04:42:47;;;;;;;0.47;0.47;;;;;;;;;;4994795;28;20201;-79
2023/03/18 04:45:14;;;;;;;0.80;0.80;;;;;;;;;;4995435;28;20177;-80
2023/03/18 04:47:40;;;;;;;0.70;0.70;;;;;;;;;;4995237;28;20185;-79
2023/03/18 04:50:09;;;;;;;0.63;0.63;;;;;;;;;;4996032;28;20232;-80
2023/03/18 04:52:35;;;;;;;0.77;0.77;;;;;;;;;;4995887;28;20216;-80
2023/03/18 04:55:02;;;;;;;0.70;0.70;;;;;;;;;;4996595;28;20177;-80
2023/03/18 04:57:28;;;;;;;0.70;0.70;;;;;;;;;;4996772;28;20221;-80
2023/03/18 04:59:55;;;;;;;0.60;0.60;;;;;;;;;;4996983;28;20219;-80
2023/03/18 05:02:21;;;;;;;0.60;0.60;;;;;;;;;;4995638;28;20265;-79
2023/03/18 05:04:47;;;;;;;0.60;0.60;;;;;;;;;;4995428;28;20267;-80
2023/03/18 05:07:17;;;;;;;0.70;0.70;;;;;;;;;;4995731;28;20182;-79
2023/03/18 05:09:43;;;;;;;0.70;0.70;;;;;;;;;;4999230;28;20185;-80
2023/03/18 05:12:13;;;;;;;0.63;0.63;;;;;;;;;;4998781;28;20263;-79
2023/03/18 05:14:40;;;;;;;0.63;0.63;;;;;;;;;;4998738;28;20643;-78
2023/03/18 05:17:06;;;;;;;0.60;0.60;;;;;;;;;;4999147;28;20227;-79
2023/03/18 05:19:32;;;;;;;0.70;0.70;;;;;;;;;;4999306;28;20177;-79
2023/03/18 05:21:59;;;;;;;0.70;0.70;;;;;;;;;;5000119;28;20185;-81
2023/03/18 05:24:25;;;;;;;0.60;0.60;;;;;;;;;;4998822;28;20193;-81
2023/03/18 05:26:51;;;;;;;0.60;0.60;;;;;;;;;;4998792;28;20181;-79
2023/03/18 05:29:16;;;;;;;0.67;0.67;;;;;;;;;;5000628;28;20177;-78
2023/03/18 05:31:43;;;;;;;0.60;0.60;;;;;;;;;;5001003;28;20535;-78
2023/03/18 05:34:09;;;;;;;0.70;0.70;;;;;;;;;;4997876;28;20205;-79
2023/03/18 05:36:35;;;;;;;0.60;0.60;;;;;;;;;;4998201;28;20223;-79
2023/03/18 05:39:01;;;;;;;0.60;0.60;;;;;;;;;;4998900;28;20265;-79
2023/03/18 05:41:28;;;;;;;0.70;0.70;;;;;;;;;;4998777;28;20181;-79
2023/03/18 05:43:54;;;;;;;0.60;0.60;;;;;;;;;;4998200;28;20207;-79
2023/03/18 05:46:20;;;;;;;0.70;0.70;;;;;;;;;;4998220;28;20205;-80
2023/03/18 05:48:46;;;;;;;0.60;0.60;;;;;;;;;;5000322;28;20205;-79
2023/03/18 05:51:13;;;;;;;0.70;0.70;;;;;;;;;;4999133;28;20189;-79
2023/03/18 05:53:39;;;;;;;0.60;0.60;;;;;;;;;;4998224;28;20228;-80
2023/03/18 05:56:06;;;;;;;0.70;0.70;;;;;;;;;;4998915;28;20270;-79
2023/03/18 05:58:33;;;;;;;0.70;0.70;;;;;;;;;;4999162;28;20188;-79
2023/03/18 06:01:00;;;;;;;0.60;0.60;;;;;;;;;;4998458;28;20184;-80
2023/03/18 06:03:26;;;;;;;0.60;0.60;;;;;;;;;;4998617;28;20574;-79
2023/03/18 06:05:52;;;;;;;0.70;0.70;;;;;;;;;;4998960;28;20185;-79
2023/03/18 06:08:18;;;;;;;0.70;0.70;;;;;;;;;;5010193;28;20188;-79
2023/03/18 06:10:44;;;;;;;0.63;0.63;;;;;;;;;;5011467;28;20196;-80
2023/03/18 06:13:11;;;;;;;0.70;0.70;;;;;;;;;;4997647;28;20290;-77
2023/03/18 06:15:37;;;;;;;0.70;0.70;;;;;;;;;;4997999;28;20184;-79
2023/03/18 06:18:04;;;;;;;0.60;0.60;;;;;;;;;;4997989;28;20625;-79
2023/03/18 06:20:31;;;;;;;0.70;0.70;;;;;;;;;;4997449;28;20279;-81
2023/03/18 06:22:57;;;;;;;0.77;0.77;;;;;;;;;;4998094;28;20631;-79
2023/03/18 06:25:24;;;;;;;0.70;0.70;;;;;;;;;;4997187;28;20192;-81
2023/03/18 06:27:51;;;;;;;0.70;0.70;;;;;;;;;;4998770;28;20177;-80
2023/03/18 06:30:17;;;;;;;0.60;0.60;;;;;;;;;;4999700;28;20244;-79
2023/03/18 06:32:43;;;;;;;0.60;0.60;;;;;;;;;;4999203;28;20243;-79
2023/03/18 06:35:10;;;;;;;0.60;0.60;;;;;;;;;;4998832;28;20189;-83
2023/03/18 06:37:37;;;;;;;0.60;0.60;;;;;;;;;;4999092;28;20276;-79
2023/03/18 06:40:04;;;;;;;0.63;0.63;;;;;;;;;;4999250;28;20174;-79
2023/03/18 06:42:30;;;;;;;0.70;0.70;;;;;;;;;;4999383;28;20189;-80
2023/03/18 06:44:56;;;;;;;0.70;0.70;;;;;;;;;;4998882;28;20169;-80
2023/03/18 06:47:22;;;;;;;0.57;0.57;;;;;;;;;;4998938;28;20176;-80
2023/03/18 06:49:49;;;;;;;0.67;0.67;;;;;;;;;;4998269;28;20241;-80
2023/03/18 06:52:16;;;;;;;0.70;0.70;;;;;;;;;;4999377;28;20181;-80
2023/03/18 06:54:42;;;;;;;0.63;0.63;;;;;;;;;;5000624;28;20641;-82
2023/03/18 06:57:08;;;;;;;0.70;0.70;;;;;;;;;;5002585;28;20220;-81
2023/03/18 06:59:35;;;;;;;0.70;0.70;;;;;;;;;;4999535;28;20185;-81
2023/03/18 07:02:01;;;;;;;0.73;0.73;;;;;;;;;;5002866;28;20192;-81
2023/03/18 07:04:27;;;;;;;0.60;0.60;;;;;;;;;;5000825;28;20332;-80
2023/03/18 07:06:53;;;;;;;0.70;0.70;;;;;;;;;;5003352;28;20514;-81
2023/03/18 07:09:19;;;;;;;0.67;0.67;;;;;;;;;;5002943;28;20181;-80
2023/03/18 07:11:45;;;;;;;0.70;0.70;;;;;;;;;;4998380;28;20181;-80
2023/03/18 07:14:13;;;;;;;0.70;0.70;;;;;;;;;;4999304;28;20217;-80
2023/03/18 07:16:39;;;;;;;0.60;0.60;;;;;;;;;;5000141;28;20224;-81
2023/03/18 07:19:06;;;;;;;0.50;0.50;;;;;;;;;;5000024;28;20180;-80
2023/03/18 07:21:32;;;;;;;0.50;0.50;;;;;;;;;;4999081;28;20193;-82
2023/03/18 07:23:58;;;;;;;0.47;0.47;;;;;;;;;;4998814;28;20215;-82
2023/03/18 07:26:24;;;;;;;0.30;0.30;;;;;;;;;;5000033;28;20680;-83
2023/03/18 07:28:50;;;;;;;0.30;0.30;;;;;;;;;;5004534;28;20177;-82
2023/03/18 07:31:16;;;;;;;0.30;0.30;;;;;;;;;;5008716;28;20269;-79
2023/03/18 07:33:42;;;;;;;0.30;0.30;;;;;;;;;;5005203;28;20205;-80
2023/03/18 07:36:09;;;;;;;0.20;0.20;;;;;;;;;;5003913;28;20205;-79
2023/03/18 07:38:35;;;;;;;0.20;0.20;;;;;;;;;;5004413;28;20196;-80
2023/03/18 07:41:01;;;;;;;0.30;0.30;;;;;;;;;;5001565;28;20636;-81
2023/03/18 07:43:27;;;;;;;0.37;0.37;;;;;;;;;;4995868;28;20201;-80
2023/03/18 07:45:54;;;;;;;0.40;0.40;;;;;;;;;;4995125;28;20185;-81
2023/03/18 07:48:20;;;;;;;0.30;0.30;;;;;;;;;;4993863;28;20580;-81
2023/03/18 07:50:46;;;;;;;0.30;0.30;;;;;;;;;;4996449;28;20181;-82
2023/03/18 07:53:13;;;;;;;0.40;0.40;;;;;;;;;;4994769;28;20262;-85
2023/03/18 07:55:40;;;;;;;0.20;0.20;;;;;;;;;;4996228;28;20173;-83
2023/03/18 07:58:07;;;;;;;0.40;0.40;;;;;;;;;;4997562;28;20173;-82
2023/03/18 08:00:34;;;;;;;0.50;0.50;;;;;;;;;;4997210;28;20187;-82
2023/03/18 08:03:00;;;;;;;0.50;0.50;;;;;;;;;;4998709;28;20224;-83
2023/03/18 08:05:26;;;;;;;0.30;0.30;;;;;;;;;;5006198;28;20174;-81
2023/03/18 08:07:52;;;;;;;0.40;0.40;;;;;;;;;;5015306;28;20207;-81
2023/03/18 08:10:19;;;;;;;0.60;0.60;;;;;;;;;;5015345;28;20212;-81
2023/03/18 08:12:45;;;;;;;0.40;0.40;;;;;;;;;;5012327;28;20238;-80
2023/03/18 08:15:11;;;;;;;0.50;0.50;;;;;;;;;;5005998;28;20177;-82
2023/03/18 08:17:38;;;;;;;0.40;0.40;;;;;;;;;;4998456;28;20331;-82
2023/03/18 08:20:05;;;;;;;0.50;0.50;;;;;;;;;;4996237;28;20557;-82
2023/03/18 08:22:31;;;;;;;0.40;0.40;;;;;;;;;;4995439;28;20212;-81
2023/03/18 08:24:57;;;;;;;0.40;0.40;;;;;;;;;;4996976;28;20183;-81
2023/03/18 08:27:24;;;;;;;0.40;0.40;;;;;;;;;;4995045;28;20204;-81
2023/03/18 08:29:50;;;;;;;0.30;0.30;;;;;;;;;;4995851;28;20644;-81
2023/03/18 08:32:16;;;;;;;0.43;0.43;;;;;;;;;;4994378;28;20669;-82
2023/03/18 08:34:42;;;;;;;0.50;0.50;;;;;;;;;;4995736;28;20184;-80
2023/03/18 08:37:09;;;;;;;0.23;0.23;;;;;;;;;;4996697;28;20214;-82
2023/03/18 08:39:35;;;;;;;0.30;0.30;;;;;;;;;;5010831;28;20193;-82
2023/03/18 08:42:04;;;;;;;0.47;0.47;;;;;;;;;;5016265;28;20598;-80
2023/03/18 08:44:30;;;;;;;0.50;0.50;;;;;;;;;;5018289;28;20192;-80
2023/03/18 08:46:56;;;;;;;0.40;0.40;;;;;;;;;;5020614;28;20161;-81
2023/03/18 08:49:23;;;;;;;0.50;0.50;;;;;;;;;;5021101;28;20208;-81
2023/03/18 08:51:49;;;;;;;0.50;0.50;;;;;;;;;;5020998;28;20191;-81
2023/03/18 08:54:15;;;;;;;0.50;0.50;;;;;;;;;;5019686;28;20200;-81
2023/03/18 08:56:41;;;;;;;0.47;0.47;;;;;;;;;;5020159;28;20335;-81
2023/03/18 08:59:07;;;;;;;0.60;0.60;;;;;;;;;;5011185;28;20192;-80
2023/03/18 09:01:34;;;;;;;0.40;0.40;;;;;;;;;;4998346;28;20177;-79
2023/03/18 09:04:00;;;;;;;0.43;0.43;;;;;;;;;;4996361;28;20197;-82
2023/03/18 09:06:26;;;;;;;0.60;0.60;;;;;;;;;;4997759;28;20173;-82
2023/03/18 09:08:52;;;;;;;0.50;0.50;;;;;;;;;;4997886;28;20721;-81
2023/03/18 09:11:18;;;;;;;0.50;0.50;;;;;;;;;;4997379;28;20703;-82
2023/03/18 09:13:44;;;;;;;0.53;0.53;;;;;;;;;;4997460;28;20528;-80
2023/03/18 09:16:11;;;;;;;0.60;0.60;;;;;;;;;;4996354;28;20229;-82
2023/03/18 09:18:38;;;;;;;0.57;0.57;;;;;;;;;;4997184;28;20187;-82
2023/03/18 09:21:04;;;;;;;0.60;0.60;;;;;;;;;;4996607;28;20282;-82
2023/03/18 09:23:31;;;;;;;0.50;0.50;;;;;;;;;;4994026;28;20755;-80
2023/03/18 09:25:58;;;;;;;0.57;0.57;;;;;;;;;;4996418;28;20257;-80
2023/03/18 09:28:25;;;;;;;0.50;0.50;;;;;;;;;;4996926;28;20185;-81
2023/03/18 09:30:51;;;;;;;0.40;0.40;;;;;;;;;;4996846;28;20185;-80
2023/03/18 09:33:17;;;;;;;0.70;0.70;;;;;;;;;;4996167;28;20212;-81
2023/03/18 09:35:43;;;;;;;0.60;0.60;;;;;;;;;;4997026;28;20169;-80
2023/03/18 09:38:16;;;;;;;0.60;0.60;;;;;;;;;;4994400;28;20312;-82
2023/03/18 09:41:02;;;;;;;0.40;0.40;;;;;;;;;;4996668;28;20212;-80
2023/03/18 09:43:28;;;;;;;0.50;0.50;;;;;;;;;;4993705;28;20227;-83
2023/03/18 09:46:13;;;;;;;0.43;0.43;;;;;;;;;;4996369;28;20173;-81
2023/03/18 09:48:54;;;;;;;0.60;0.60;;;;;;;;;;4991062;28;20223;-81
2023/03/18 09:51:33;;;;;;;0.50;0.50;;;;;;;;;;4989224;28;20185;-82
2023/03/18 09:54:10;;;;;;;0.47;0.47;;;;;;;;;;4994847;28;20228;-81
2023/03/18 09:56:38;;;;;;;0.40;0.40;;;;;;;;;;4995232;28;20299;-81
2023/03/18 09:59:25;;;;;;;0.60;0.60;;;;;;;;;;4992321;28;20173;-81
2023/03/18 10:01:53;;;;;;;0.60;0.60;;;;;;;;;;4995337;28;20173;-81
2023/03/18 10:04:35;;;;;;;0.57;0.57;;;;;;;;;;4994551;28;20212;-82
2023/03/18 10:07:13;;;;;;;0.60;0.60;;;;;;;;;;4981930;28;20282;-81
2023/03/18 10:09:43;;;;;;;0.50;0.50;;;;;;;;;;4994600;28;20906;-81
2023/03/18 10:12:18;;;;;;;0.50;0.50;;;;;;;;;;4993620;28;20188;-82
2023/03/18 10:15:15;;;;;;;0.60;0.60;;;;;;;;;;4993025;28;20191;-80
2023/03/18 10:17:44;;;;;;;0.63;0.63;;;;;;;;;;4994869;28;20212;-83
2023/03/18 10:20:25;;;;;;;0.50;0.50;;;;;;;;;;5003743;28;20189;-82
2023/03/18 10:23:21;;;;;;;0.43;0.43;;;;;;;;;;4995012;28;20223;-84
2023/03/18 10:25:51;;;;;;;0.50;0.50;;;;;;;;;;4995882;28;20193;-83
2023/03/18 10:28:56;;;;;;;0.50;0.50;;;;;;;;;;4995454;28;20185;-83
2023/03/18 10:31:31;;;;;;;0.43;0.43;;;;;;;;;;4962995;28;20186;-84
2023/03/18 10:34:12;;;;;;;0.50;0.50;;;;;;;;;;4973101;28;20209;-84
2023/03/18 10:36:56;;;;;;;0.40;0.40;;;;;;;;;;4987365;28;20244;-84
2023/03/18 10:39:23;;;;;;;0.43;0.43;;;;;;;;;;4996829;28;20549;-87
2023/03/18 10:41:50;;;;;;;0.60;0.60;;;;;;;;;;5000139;28;20179;-87
2023/03/18 10:44:22;;;;;;;0.50;0.50;;;;;;;;;;4998244;28;20235;-87
2023/03/18 10:46:52;;;;;;;0.60;0.60;;;;;;;;;;4997079;28;20204;-87
2023/03/18 10:49:21;;;;;;;0.60;0.60;;;;;;;;;;5001412;28;20201;-87
2023/03/18 10:51:51;;;;;;;0.40;0.40;;;;;;;;;;4997670;28;20188;-87
2023/03/18 10:54:37;;;;;;;0.50;0.50;;;;;;;;;;5000267;28;20229;-86
2023/03/18 10:57:03;;;;;;;0.30;0.30;;;;;;;;;;4988358;28;20269;-87
2023/03/18 10:59:29;;;;;;;0.30;0.30;;;;;;;;;;4999587;28;20181;-86
2023/03/18 11:02:11;;;;;;;0.40;0.40;;;;;;;;;;5000728;28;20239;-87
2023/03/18 11:04:48;;;;;;;0.40;0.40;;;;;;;;;;4999283;28;20187;-87
2023/03/18 11:07:17;;;;;;;0.30;0.30;;;;;;;;;;4980470;28;20607;-86
2023/03/18 11:09:44;;;;;;;0.30;0.30;;;;;;;;;;4977513;28;20577;-85
2023/03/18 11:12:17;;;;;;;0.40;0.40;;;;;;;;;;4976672;28;20181;-86
2023/03/18 11:14:47;;;;;;;0.50;0.50;;;;;;;;;;4978735;28;20199;-88
2023/03/18 11:17:26;;;;;;;0.30;0.30;;;;;;;;;;4995037;28;20208;-86
2023/03/18 11:20:06;;;;;;;0.30;0.30;;;;;;;;;;4995401;28;20200;-88
2023/03/18 11:22:33;;;;;;;0.30;0.30;;;;;;;;;;4994064;28;20196;-86
2023/03/18 11:25:02;;;;;;;0.40;0.40;;;;;;;;;;4994125;28;20193;-87
2023/03/18 11:27:34;;;;;;;0.33;0.33;;;;;;;;;;4994832;28;20224;-88
2023/03/18 11:30:04;;;;;;;0.30;0.30;;;;;;;;;;4996885;28;20192;-89
2023/03/18 11:32:32;;;;;;;0.30;0.30;;;;;;;;;;5010978;28;20188;-86
2023/03/18 11:35:00;;;;;;;0.40;0.40;;;;;;;;;;4995046;28;20641;-88
2023/03/18 11:37:31;;;;;;;0.40;0.40;;;;;;;;;;4995866;28;20212;-87
2023/03/18 11:40:13;;;;;;;0.30;0.30;;;;;;;;;;5015762;28;20321;-91
2023/03/18 11:42:39;;;;;;;0.43;0.43;;;;;;;;;;5017393;28;20197;-90
2023/03/18 11:45:26;;;;;;;0.40;0.40;;;;;;;;;;5010262;28;20182;-88
2023/03/18 11:47:53;;;;;;;0.40;0.40;;;;;;;;;;4990821;28;20209;-87
2023/03/18 11:50:24;;;;;;;0.37;0.37;;;;;;;;;;5000844;28;20664;-86
2023/03/18 11:53:03;;;;;;;0.40;0.40;;;;;;;;;;5000210;28;20212;-87
2023/03/18 11:55:40;;;;;;;0.30;0.30;;;;;;;;;;5004222;28;20188;-87
2023/03/18 11:58:07;;;;;;;0.30;0.30;;;;;;;;;;4999626;28;20185;-88
2023/03/18 12:00:49;;;;;;;0.30;0.30;;;;;;;;;;5000227;28;20180;-88
2023/03/18 12:03:34;;;;;;;0.40;0.40;;;;;;;;;;5002681;28;20216;-85
2023/03/18 12:06:20;;;;;;;0.40;0.40;;;;;;;;;;5004692;28;20177;-84
2023/03/18 12:09:00;;;;;;;0.40;0.40;;;;;;;;;;5002460;28;20181;-83
2023/03/18 12:11:49;;;;;;;0.40;0.40;;;;;;;;;;4999145;28;20181;-87
2023/03/18 12:14:29;;;;;;;0.50;0.50;;;;;;;;;;4991612;28;20219;-87
2023/03/18 12:16:55;;;;;;;0.43;0.43;;;;;;;;;;4994664;28;20209;-87
2023/03/18 12:19:21;;;;;;;0.50;0.50;;;;;;;;;;4995166;28;20307;-88
2023/03/18 12:21:47;;;;;;;0.60;0.60;;;;;;;;;;4994461;28;20200;-88
2023/03/18 12:24:16;;;;;;;0.30;0.30;;;;;;;;;;4993499;28;20201;-88
2023/03/18 12:26:48;;;;;;;0.50;0.50;;;;;;;;;;4993882;28;20220;-87
2023/03/18 12:29:17;;;;;;;0.40;0.40;;;;;;;;;;4993926;28;20181;-87
2023/03/18 12:31:47;;;;;;;0.40;0.40;;;;;;;;;;4995463;28;20181;-87
2023/03/18 12:34:36;;;;;;;0.40;0.40;;;;;;;;;;4995135;28;20205;-87
2023/03/18 12:37:37;;;;;;;0.40;0.40;;;;;;;;;;4976143;28;20216;-88
2023/03/18 12:40:17;;;;;;;0.50;0.50;;;;;;;;;;4955010;29;20190;-88
2023/03/18 12:42:54;;;;;;;0.47;0.47;;;;;;;;;;4989743;28;20208;-88
2023/03/18 12:45:22;;;;;;;0.50;0.50;;;;;;;;;;4998474;28;20200;-89
2023/03/18 12:47:52;;;;;;;0.53;0.53;;;;;;;;;;4997307;28;20204;-86
2023/03/18 12:50:20;;;;;;;0.50;0.50;;;;;;;;;;4998977;28;20177;-88
2023/03/18 12:53:25;;;;;;;0.33;0.33;;;;;;;;;;4997633;28;20273;-88
2023/03/18 12:55:54;;;;;;;0.40;0.40;;;;;;;;;;4954106;29;20584;-86
2023/03/18 12:58:23;;;;;;;0.20;0.20;;;;;;;;;;4952378;29;20213;-87
2023/03/18 13:01:07;;;;;;;0.40;0.40;;;;;;;;;;4975209;28;20261;-86
2023/03/18 13:03:40;;;;;;;0.37;0.37;;;;;;;;;;5012283;28;20189;-86
2023/03/18 13:06:25;;;;;;;0.40;0.40;;;;;;;;;;5010704;28;20181;-86
2023/03/18 13:09:10;;;;;;;0.40;0.40;;;;;;;;;;5010119;28;20173;-87
2023/03/18 13:11:36;;;;;;;0.40;0.40;;;;;;;;;;4999023;28;20196;-89
2023/03/18 13:14:22;;;;;;;0.40;0.40;;;;;;;;;;5012861;28;20181;-87
2023/03/18 13:16:49;;;;;;;0.20;0.20;;;;;;;;;;5004911;28;20225;-87
2023/03/18 13:19:17;;;;;;;0.30;0.30;;;;;;;;;;4995816;28;20640;-85
2023/03/18 13:21:45;;;;;;;0.30;0.30;;;;;;;;;;4995670;28;20549;-86
2023/03/18 13:24:28;;;;;;;0.37;0.37;;;;;;;;;;4994346;28;20687;-86
2023/03/18 13:27:08;;;;;;;0.30;0.30;;;;;;;;;;4994974;28;20258;-85
2023/03/18 13:29:54;;;;;;;0.20;0.20;;;;;;;;;;4998716;28;20184;-86
2023/03/18 13:32:23;;;;;;;0.30;0.30;;;;;;;;;;4996572;28;20272;-87
2023/03/18 13:35:05;;;;;;;0.30;0.30;;;;;;;;;;4997170;28;20169;-87
2023/03/18 13:37:55;;;;;;;0.40;0.40;;;;;;;;;;4996474;28;20576;-87
2023/03/18 13:40:30;;;;;;;0.20;0.20;;;;;;;;;;4993353;28;20241;-87
2023/03/18 13:42:57;;;;;;;0.20;0.20;;;;;;;;;;4997179;28;20197;-87
2023/03/18 13:45:27;;;;;;;0.20;0.20;;;;;;;;;;4997109;28;20388;-90
2023/03/18 13:48:06;;;;;;;0.20;0.20;;;;;;;;;;4997302;28;20208;-85
2023/03/18 13:50:34;;;;;;;0.20;0.20;;;;;;;;;;4998061;28;20245;-87
2023/03/18 13:53:01;;;;;;;0.30;0.30;;;;;;;;;;4997620;28;20220;-88
2023/03/18 13:55:33;;;;;;;0.30;0.30;;;;;;;;;;4998793;28;20219;-86
2023/03/18 13:58:05;;;;;;;0.30;0.30;;;;;;;;;;4996230;28;20209;-87
2023/03/18 14:00:33;;;;;;;0.20;0.20;;;;;;;;;;4999027;28;20249;-85
2023/03/18 14:03:04;;;;;;;0.20;0.20;;;;;;;;;;4997621;28;20197;-86
2023/03/18 14:05:41;;;;;;;0.30;0.30;;;;;;;;;;4997206;28;20289;-88
2023/03/18 14:08:27;;;;;;;0.30;0.30;;;;;;;;;;4998264;28;20193;-86
2023/03/18 14:11:21;;;;;;;0.30;0.30;;;;;;;;;;4997509;28;20239;-89
2023/03/18 14:13:47;;;;;;;0.20;0.20;;;;;;;;;;4994605;28;20304;-86
2023/03/18 14:16:18;;;;;;;0.30;0.30;;;;;;;;;;4996231;28;20197;-88
2023/03/18 14:18:45;;;;;;;0.33;0.33;;;;;;;;;;5000921;28;20173;-83
2023/03/18 14:21:24;;;;;;;0.30;0.30;;;;;;;;;;5004252;28;20189;-87
2023/03/18 14:24:11;;;;;;;0.30;0.30;;;;;;;;;;5000907;28;20284;-82
2023/03/18 14:26:37;;;;;;;0.30;0.30;;;;;;;;;;5005719;28;20180;-81
2023/03/18 14:29:06;;;;;;;0.30;0.30;;;;;;;;;;5012606;28;20170;-83
2023/03/18 14:31:38;;;;;;;0.30;0.30;;;;;;;;;;5018636;28;20165;-81
2023/03/18 14:34:25;;;;;;;0.30;0.30;;;;;;;;;;5018131;28;20185;-79
2023/03/18 14:36:57;;;;;;;0.30;0.30;;;;;;;;;;5017478;28;20213;-82
2023/03/18 14:39:32;;;;;;;0.40;0.40;;;;;;;;;;5009820;28;20170;-82
2023/03/18 14:42:00;;;;;;;0.33;0.33;;;;;;;;;;5003772;28;20200;-83
2023/03/18 14:44:29;;;;;;;0.40;0.40;;;;;;;;;;5000927;28;20240;-82
2023/03/18 14:46:58;;;;;;;0.30;0.30;;;;;;;;;;5003383;28;20206;-82
2023/03/18 14:49:34;;;;;;;0.20;0.20;;;;;;;;;;5002359;28;20177;-84
2023/03/18 14:52:03;;;;;;;0.30;0.30;;;;;;;;;;5001123;28;20177;-83
2023/03/18 14:54:32;;;;;;;0.30;0.30;;;;;;;;;;5003966;28;20200;-82
2023/03/18 14:57:03;;;;;;;0.30;0.30;;;;;;;;;;5002557;28;20216;-82
2023/03/18 14:59:29;;;;;;;0.30;0.30;;;;;;;;;;4999696;28;20173;-81